Time;durP1;ratioP1;P1;durP2;ratioP2;P2;SDS_P1;SDS_P2;PMS_P1;PMS_P2;Temp;Humidity;BMP_temperature;BMP_pressure;BME280_temperature;BME280_humidity;BME280_pressure;Samples;Min_cycle;Max_cycle;Signal;HPM_P1;HPM_P2
2022/08/30 00:01:04;;;;;;;3.65;3.35;;;26.80;47.10;;;;;;5150690;27;45293;-69
2022/08/30 00:03:31;;;;;;;3.58;3.30;;;26.80;46.90;;;;;;5150711;27;45199;-69
2022/08/30 00:05:58;;;;;;;4.00;3.55;;;26.70;46.90;;;;;;5150813;27;45171;-69
2022/08/30 00:08:25;;;;;;;3.80;3.50;;;26.70;47.60;;;;;;5150441;27;46354;-69
2022/08/30 00:10:52;;;;;;;3.67;3.38;;;26.70;47.00;;;;;;5150279;27;45363;-70
2022/08/30 00:13:20;;;;;;;3.80;3.50;;;26.70;47.10;;;;;;5150447;27;45320;-69
2022/08/30 00:15:47;;;;;;;3.65;3.35;;;26.70;47.00;;;;;;5150700;27;45164;-70
2022/08/30 00:18:14;;;;;;;3.63;3.33;;;26.60;47.00;;;;;;5148059;27;46554;-70
2022/08/30 00:20:41;;;;;;;4.93;3.88;;;26.60;47.10;;;;;;5129298;27;45272;-69
2022/08/30 00:23:08;;;;;;;3.60;3.30;;;26.60;47.00;;;;;;5129274;27;45268;-70
2022/08/30 00:25:35;;;;;;;3.90;3.55;;;26.60;47.00;;;;;;5129659;27;45229;-70
2022/08/30 00:28:02;;;;;;;3.65;3.35;;;26.60;47.10;;;;;;5129250;27;45216;-70
2022/08/30 00:30:30;;;;;;;3.90;3.60;;;26.50;46.90;;;;;;5137213;27;45143;-70
2022/08/30 00:32:57;;;;;;;3.90;3.60;;;26.50;47.00;;;;;;5149922;27;45317;-69
2022/08/30 00:35:25;;;;;;;3.40;3.10;;;26.50;47.10;;;;;;5150450;27;45274;-69
2022/08/30 00:37:52;;;;;;;5.00;3.88;;;26.50;47.00;;;;;;5149688;27;46493;-70
2022/08/30 00:40:19;;;;;;;3.92;3.55;;;26.50;47.00;;;;;;5149936;27;45142;-70
2022/08/30 00:42:46;;;;;;;3.78;3.47;;;26.50;47.00;;;;;;5149984;27;45340;-70
2022/08/30 00:45:15;;;;;;;3.55;3.25;;;26.40;47.00;;;;;;5150117;27;45228;-70
2022/08/30 00:47:43;;;;;;;3.70;3.40;;;26.40;46.80;;;;;;5149745;27;45234;-70
2022/08/30 00:50:10;;;;;;;3.60;3.30;;;26.40;47.00;;;;;;5149779;27;45192;-70
2022/08/30 00:52:37;;;;;;;3.78;3.47;;;26.40;47.00;;;;;;5149747;27;45259;-70
2022/08/30 00:55:04;;;;;;;3.78;3.47;;;26.40;47.00;;;;;;5149915;27;45293;-70
2022/08/30 00:57:31;;;;;;;3.97;3.45;;;26.40;47.10;;;;;;5149580;27;45241;-70
2022/08/30 00:59:57;;;;;;;4.65;3.75;;;26.40;47.20;;;;;;5149583;27;45163;-70
2022/08/30 01:02:24;;;;;;;3.58;3.28;;;26.30;47.10;;;;;;5149922;27;45213;-70
2022/08/30 01:04:53;;;;;;;3.80;3.50;;;26.30;47.30;;;;;;5149273;27;45235;-69
2022/08/30 01:07:20;;;;;;;3.53;3.22;;;26.30;47.20;;;;;;5148676;27;46593;-70
2022/08/30 01:09:46;;;;;;;3.90;3.60;;;26.30;47.20;;;;;;5149322;27;45229;-70
2022/08/30 01:12:13;;;;;;;4.03;3.53;;;26.30;47.50;;;;;;5149419;27;45108;-70
2022/08/30 01:14:40;;;;;;;4.40;4.00;;;26.30;47.20;;;;;;5149575;27;45407;-69
2022/08/30 01:17:07;;;;;;;3.97;3.60;;;26.30;47.10;;;;;;5149336;27;45285;-70
2022/08/30 01:19:36;;;;;;;3.60;3.30;;;26.30;47.00;;;;;;5135465;27;45282;-70
2022/08/30 01:22:08;;;;;;;3.70;3.40;;;26.30;47.20;;;;;;5128482;27;45244;-70
2022/08/30 01:24:36;;;;;;;3.83;3.50;;;26.20;47.10;;;;;;5128676;27;45410;-69
2022/08/30 01:27:03;;;;;;;4.07;3.35;;;26.20;47.10;;;;;;5128150;27;46485;-70
2022/08/30 01:29:30;;;;;;;3.60;3.30;;;26.20;47.10;;;;;;5128194;27;45230;-70
2022/08/30 01:31:57;;;;;;;3.50;3.20;;;26.20;47.10;;;;;;5128253;27;45320;-70
2022/08/30 01:34:24;;;;;;;3.42;3.13;;;26.20;47.00;;;;;;5128478;27;45295;-70
2022/08/30 01:36:51;;;;;;;3.60;3.30;;;26.20;47.20;;;;;;5127919;27;45794;-70
2022/08/30 01:39:18;;;;;;;3.50;3.15;;;26.20;47.00;;;;;;5128259;27;45131;-70
2022/08/30 01:41:46;;;;;;;3.50;3.20;;;26.20;47.10;;;;;;5128279;27;45195;-70
2022/08/30 01:44:13;;;;;;;4.03;3.30;;;26.10;47.00;;;;;;5128377;27;45284;-70
2022/08/30 01:46:42;;;;;;;3.10;2.90;;;26.10;47.00;;;;;;5127922;27;45465;-70
2022/08/30 01:49:11;;;;;;;3.10;2.90;;;26.10;47.00;;;;;;5127960;27;45122;-69
2022/08/30 01:51:37;;;;;;;4.35;3.65;;;26.10;47.00;;;;;;5128041;27;45237;-70
2022/08/30 01:54:04;;;;;;;3.40;3.10;;;26.10;46.90;;;;;;5128078;27;45448;-69
2022/08/30 01:56:31;;;;;;;3.42;3.15;;;26.00;47.00;;;;;;5127392;27;45307;-69
2022/08/30 01:58:59;;;;;;;3.45;3.15;;;26.00;47.00;;;;;;5127708;27;45158;-69
2022/08/30 02:01:27;;;;;;;3.42;3.13;;;26.00;47.00;;;;;;5127724;27;45169;-69
2022/08/30 02:03:55;;;;;;;3.53;3.22;;;26.00;46.90;;;;;;5128021;27;45392;-70
2022/08/30 02:06:22;;;;;;;3.95;3.38;;;26.00;47.00;;;;;;5127629;27;46397;-70
2022/08/30 02:08:49;;;;;;;3.10;2.90;;;26.00;46.90;;;;;;5127731;27;45140;-70
2022/08/30 02:11:16;;;;;;;3.40;3.10;;;26.00;47.00;;;;;;5127743;27;45168;-70
2022/08/30 02:13:44;;;;;;;3.42;3.13;;;26.00;46.90;;;;;;5128071;27;45335;-70
2022/08/30 02:16:14;;;;;;;3.60;3.30;;;25.90;46.90;;;;;;5127599;27;46379;-69
2022/08/30 02:18:41;;;;;;;3.72;3.42;;;25.90;46.90;;;;;;5133563;27;45164;-70
2022/08/30 02:21:08;;;;;;;3.90;2.90;;;25.90;47.00;;;;;;5148640;27;45255;-70
2022/08/30 02:23:35;;;;;;;3.00;2.70;;;25.90;46.90;;;;;;5148728;27;45320;-69
2022/08/30 02:26:02;;;;;;;3.20;2.90;;;25.90;47.00;;;;;;5148442;27;46503;-70
2022/08/30 02:28:29;;;;;;;3.40;3.10;;;25.90;46.90;;;;;;5148392;27;45177;-70
2022/08/30 02:30:56;;;;;;;3.47;3.17;;;25.80;46.90;;;;;;5136507;27;45289;-70
2022/08/30 02:33:24;;;;;;;3.22;2.92;;;25.80;46.90;;;;;;5127821;27;45438;-69
2022/08/30 02:35:51;;;;;;;3.60;3.30;;;25.80;47.00;;;;;;5127490;27;47466;-69
2022/08/30 02:38:18;;;;;;;3.40;3.10;;;25.80;46.90;;;;;;5127022;27;45375;-70
2022/08/30 02:40:45;;;;;;;3.45;3.15;;;25.80;46.90;;;;;;5127316;27;45261;-70
2022/08/30 02:43:12;;;;;;;2.83;2.60;;;25.70;46.90;;;;;;5127658;27;45099;-69
2022/08/30 02:45:39;;;;;;;3.28;2.95;;;25.70;46.80;;;;;;5126912;27;46424;-69
2022/08/30 02:48:06;;;;;;;3.30;2.90;;;25.70;46.90;;;;;;5127402;27;45305;-69
2022/08/30 02:50:34;;;;;;;3.20;2.90;;;25.70;47.00;;;;;;5127418;27;45231;-69
2022/08/30 02:53:01;;;;;;;3.40;3.10;;;25.70;46.90;;;;;;5127519;27;45253;-69
2022/08/30 02:55:27;;;;;;;3.17;2.90;;;25.60;47.00;;;;;;5127109;27;45375;-69
2022/08/30 02:57:54;;;;;;;3.13;2.90;;;25.60;46.90;;;;;;5127014;27;45294;-70
2022/08/30 03:00:21;;;;;;;3.28;2.85;;;25.60;46.90;;;;;;5127286;27;45329;-70
2022/08/30 03:02:48;;;;;;;3.10;2.90;;;25.60;46.90;;;;;;5127301;27;45340;-69
2022/08/30 03:05:15;;;;;;;2.83;2.63;;;25.60;46.80;;;;;;5127073;27;45380;-70
2022/08/30 03:07:44;;;;;;;3.40;3.10;;;25.60;46.90;;;;;;5127181;27;45193;-70
2022/08/30 03:10:11;;;;;;;3.40;3.10;;;25.60;46.90;;;;;;5127141;27;45306;-70
2022/08/30 03:12:38;;;;;;;3.08;2.88;;;25.60;47.00;;;;;;5127156;27;45321;-70
2022/08/30 03:15:05;;;;;;;3.22;2.92;;;25.50;46.90;;;;;;5126767;27;46402;-69
2022/08/30 03:17:32;;;;;;;3.33;3.00;;;25.50;46.80;;;;;;5126841;27;45153;-70
2022/08/30 03:20:01;;;;;;;2.70;2.50;;;25.50;46.80;;;;;;5144031;27;45378;-70
2022/08/30 03:22:27;;;;;;;3.05;2.85;;;25.50;46.90;;;;;;5147848;27;45275;-69
2022/08/30 03:24:58;;;;;;;3.15;2.85;;;25.50;46.90;;;;;;5147627;27;46385;-69
2022/08/30 03:27:25;;;;;;;3.15;2.95;;;25.40;46.90;;;;;;5147369;27;45305;-69
2022/08/30 03:29:51;;;;;;;2.85;2.65;;;25.50;47.00;;;;;;5146871;27;45237;-69
2022/08/30 03:32:18;;;;;;;2.60;2.40;;;25.40;46.90;;;;;;5130241;27;45370;-69
2022/08/30 03:34:45;;;;;;;3.22;2.92;;;25.40;46.80;;;;;;5129935;27;46360;-69
2022/08/30 03:37:12;;;;;;;3.20;2.90;;;25.40;46.90;;;;;;5129746;27;45141;-70
2022/08/30 03:39:39;;;;;;;3.38;3.08;;;25.40;46.80;;;;;;5130135;27;45274;-70
2022/08/30 03:42:07;;;;;;;2.83;2.63;;;25.40;46.90;;;;;;5130176;27;45309;-70
2022/08/30 03:44:34;;;;;;;3.42;2.85;;;25.30;46.90;;;;;;5129914;27;45190;-70
2022/08/30 03:47:01;;;;;;;3.42;2.90;;;25.30;47.00;;;;;;5130560;27;45145;-69
2022/08/30 03:49:28;;;;;;;2.80;2.60;;;25.30;47.00;;;;;;5130384;27;45189;-70
2022/08/30 03:51:54;;;;;;;3.08;2.80;;;25.30;46.90;;;;;;5130472;27;45305;-70
2022/08/30 03:54:21;;;;;;;2.60;2.40;;;25.30;46.90;;;;;;5130011;27;45251;-70
2022/08/30 03:56:48;;;;;;;3.20;2.90;;;25.30;47.00;;;;;;5130033;27;45313;-70
2022/08/30 03:59:16;;;;;;;3.00;2.70;;;25.30;46.90;;;;;;5129747;27;45210;-70
2022/08/30 04:01:44;;;;;;;3.05;2.78;;;25.30;46.90;;;;;;5130041;27;45229;-70
2022/08/30 04:04:11;;;;;;;3.33;3.00;;;25.30;46.80;;;;;;5129737;27;46900;-70
2022/08/30 04:06:38;;;;;;;3.40;2.80;;;25.30;47.00;;;;;;5129686;27;45327;-69
2022/08/30 04:09:04;;;;;;;3.05;2.60;;;25.20;46.80;;;;;;5129813;27;45238;-70
2022/08/30 04:11:31;;;;;;;3.22;2.80;;;25.20;46.80;;;;;;5129938;27;45139;-70
2022/08/30 04:13:58;;;;;;;2.75;2.50;;;25.20;46.90;;;;;;5129354;27;45442;-70
2022/08/30 04:16:26;;;;;;;3.20;2.70;;;25.20;47.00;;;;;;5129507;27;45354;-69
2022/08/30 04:18:53;;;;;;;3.30;3.03;;;25.20;47.00;;;;;;5137059;27;45343;-69
2022/08/30 04:21:20;;;;;;;3.10;2.80;;;25.10;46.90;;;;;;5150669;27;45404;-69
2022/08/30 04:23:47;;;;;;;2.85;2.65;;;25.20;46.90;;;;;;5150089;27;46382;-70
2022/08/30 04:26:13;;;;;;;2.88;2.67;;;25.20;47.00;;;;;;5149866;27;45197;-69
2022/08/30 04:28:40;;;;;;;4.18;2.60;;;25.20;46.90;;;;;;5150476;27;45256;-70
2022/08/30 04:31:08;;;;;;;2.58;2.38;;;25.10;46.90;;;;;;5137238;27;45283;-70
2022/08/30 04:33:36;;;;;;;3.28;3.00;;;25.10;46.80;;;;;;5128972;27;47051;-70
2022/08/30 04:36:04;;;;;;;3.13;2.85;;;25.10;47.50;;;;;;5129572;27;45123;-70
2022/08/30 04:38:31;;;;;;;2.70;2.50;;;25.00;46.90;;;;;;5129195;27;45332;-70
2022/08/30 04:40:57;;;;;;;2.55;2.35;;;25.00;46.80;;;;;;5129336;27;45382;-70
2022/08/30 04:43:25;;;;;;;2.67;2.47;;;25.00;47.00;;;;;;5129142;27;45165;-70
2022/08/30 04:45:52;;;;;;;2.78;2.58;;;25.00;46.80;;;;;;5129130;27;45203;-70
2022/08/30 04:48:19;;;;;;;2.88;2.67;;;25.00;46.80;;;;;;5129431;27;45269;-70
2022/08/30 04:50:47;;;;;;;4.28;2.80;;;25.00;46.90;;;;;;5129445;27;45250;-70
2022/08/30 04:53:14;;;;;;;2.90;2.60;;;25.00;47.50;;;;;;5128829;27;45214;-69
2022/08/30 04:55:42;;;;;;;3.85;2.55;;;25.00;46.80;;;;;;5129164;27;45209;-70
2022/08/30 04:58:09;;;;;;;2.78;2.58;;;25.00;46.90;;;;;;5128826;27;45172;-69
2022/08/30 05:00:36;;;;;;;2.67;2.47;;;25.00;46.90;;;;;;5129380;27;45407;-70
2022/08/30 05:03:03;;;;;;;2.67;2.47;;;25.00;46.80;;;;;;5128979;27;46511;-70
2022/08/30 05:05:39;;;;;;;2.65;2.42;;;25.00;46.80;;;;;;5129080;27;45234;-70
2022/08/30 05:08:08;;;;;;;2.65;2.45;;;24.90;46.90;;;;;;5129086;27;45283;-69
2022/08/30 05:10:36;;;;;;;2.60;2.30;;;24.90;46.80;;;;;;5129224;27;45256;-69
2022/08/30 05:13:03;;;;;;;2.63;2.40;;;24.90;46.90;;;;;;5128421;27;45311;-69
2022/08/30 05:15:30;;;;;;;2.78;2.58;;;24.90;47.40;;;;;;5128938;27;45204;-69
2022/08/30 05:17:57;;;;;;;3.05;2.85;;;24.90;46.90;;;;;;5128728;27;45189;-70
2022/08/30 05:20:24;;;;;;;2.67;2.42;;;24.90;46.90;;;;;;5149418;27;45469;-69
2022/08/30 05:22:50;;;;;;;2.90;2.67;;;24.90;46.90;;;;;;5149305;27;45309;-69
2022/08/30 05:25:19;;;;;;;2.88;2.67;;;24.90;46.80;;;;;;5149246;27;45397;-69
2022/08/30 05:27:46;;;;;;;3.00;2.53;;;24.90;46.90;;;;;;5149646;27;45202;-69
2022/08/30 05:30:13;;;;;;;2.80;2.50;;;24.90;46.90;;;;;;5143906;27;45403;-70
2022/08/30 05:32:40;;;;;;;2.80;2.60;;;24.90;46.90;;;;;;5128146;27;45310;-69
2022/08/30 05:35:07;;;;;;;3.00;2.75;;;24.90;46.90;;;;;;5128347;27;45307;-69
2022/08/30 05:37:34;;;;;;;3.22;2.80;;;24.90;46.80;;;;;;5128395;27;45154;-70
2022/08/30 05:40:01;;;;;;;2.70;2.50;;;24.90;46.80;;;;;;5128641;27;45189;-70
2022/08/30 05:42:30;;;;;;;2.88;2.60;;;24.90;46.80;;;;;;5128240;27;47287;-69
2022/08/30 05:44:57;;;;;;;2.53;2.33;;;24.90;46.80;;;;;;5128286;27;45291;-70
2022/08/30 05:47:23;;;;;;;2.90;2.70;;;24.80;46.80;;;;;;5128231;27;45375;-69
2022/08/30 05:49:50;;;;;;;3.20;2.90;;;24.80;46.90;;;;;;5128429;27;45201;-70
2022/08/30 05:52:17;;;;;;;3.00;2.80;;;24.80;46.90;;;;;;5127371;27;46329;-69
2022/08/30 05:54:44;;;;;;;2.83;2.63;;;24.80;46.90;;;;;;5128365;27;45443;-70
2022/08/30 05:57:11;;;;;;;2.97;2.78;;;24.80;47.00;;;;;;5128126;27;44715;-69
2022/08/30 05:59:39;;;;;;;2.97;2.67;;;24.80;47.00;;;;;;5128311;27;45252;-69
2022/08/30 06:02:06;;;;;;;3.22;2.80;;;24.80;47.00;;;;;;5128066;27;46390;-70
2022/08/30 06:04:32;;;;;;;3.78;2.83;;;24.80;46.90;;;;;;5127943;27;45143;-70
2022/08/30 06:06:59;;;;;;;3.30;2.70;;;24.80;46.90;;;;;;5128040;27;45321;-70
2022/08/30 06:09:26;;;;;;;3.85;3.20;;;24.80;46.90;;;;;;5128057;27;45465;-70
2022/08/30 06:11:53;;;;;;;3.80;2.88;;;24.80;46.90;;;;;;5127973;27;45313;-70
2022/08/30 06:14:20;;;;;;;3.45;3.15;;;24.80;47.10;;;;;;5127764;27;45217;-70
2022/08/30 06:16:49;;;;;;;3.50;2.90;;;24.80;47.00;;;;;;5127996;27;45175;-70
2022/08/30 06:19:15;;;;;;;3.53;3.20;;;24.80;47.00;;;;;;5138862;27;45379;-70
2022/08/30 06:21:42;;;;;;;3.35;3.10;;;24.80;47.00;;;;;;5148401;27;46486;-70
2022/08/30 06:24:10;;;;;;;3.30;3.00;;;24.80;47.60;;;;;;5148419;27;45264;-69
2022/08/30 06:26:39;;;;;;;3.22;3.00;;;24.90;47.00;;;;;;5148607;27;45131;-70
2022/08/30 06:29:06;;;;;;;3.22;2.92;;;24.80;47.10;;;;;;5148666;27;45322;-70
2022/08/30 06:31:33;;;;;;;4.03;2.92;;;24.80;47.10;;;;;;5130770;27;46401;-70
2022/08/30 06:34:01;;;;;;;4.95;3.30;;;24.90;47.10;;;;;;5127351;27;45162;-70
2022/08/30 06:36:28;;;;;;;4.55;3.53;;;24.80;47.20;;;;;;5127754;27;45185;-70
2022/08/30 06:38:55;;;;;;;4.13;3.30;;;24.90;47.70;;;;;;5127598;27;45435;-70
2022/08/30 06:41:23;;;;;;;4.22;3.30;;;24.90;47.90;;;;;;5127348;27;45706;-70
2022/08/30 06:43:50;;;;;;;5.57;4.93;;;24.90;47.80;;;;;;5127367;27;45238;-70
2022/08/30 06:46:18;;;;;;;4.47;4.07;;;24.90;47.90;;;;;;5127186;27;45245;-70
2022/08/30 06:48:45;;;;;;;7.35;5.35;;;24.90;48.10;;;;;;5127621;27;45304;-70
2022/08/30 06:51:13;;;;;;;6.03;5.22;;;24.90;48.00;;;;;;5127392;27;46410;-70
2022/08/30 06:53:40;;;;;;;6.18;5.05;;;24.90;48.00;;;;;;5125297;27;45242;-70
2022/08/30 06:56:08;;;;;;;6.75;5.00;;;25.00;48.10;;;;;;5127621;27;45192;-70
2022/08/30 06:58:35;;;;;;;6.63;4.97;;;25.00;48.10;;;;;;5127636;27;45270;-70
2022/08/30 07:01:02;;;;;;;9.25;4.63;;;25.00;48.70;;;;;;5127028;27;45298;-70
2022/08/30 07:03:29;;;;;;;5.97;4.53;;;25.00;48.30;;;;;;5126971;27;45321;-70
2022/08/30 07:05:56;;;;;;;6.70;4.63;;;25.00;48.00;;;;;;5131036;27;45169;-70
2022/08/30 07:08:24;;;;;;;5.13;4.65;;;25.00;48.00;;;;;;5131127;27;45185;-70
2022/08/30 07:10:53;;;;;;;8.88;5.22;;;25.00;48.10;;;;;;5130962;27;45480;-70
2022/08/30 07:13:20;;;;;;;5.78;4.97;;;25.00;48.30;;;;;;5131001;27;45310;-70
2022/08/30 07:15:47;;;;;;;6.35;4.45;;;25.00;48.00;;;;;;5131039;27;45238;-70
2022/08/30 07:21:06;;;;;;;9.32;5.07;;;25.10;48.20;;;;;;5123885;27;45529;-70
2022/08/30 07:23:34;;;;;;;7.53;5.18;;;25.00;48.20;;;;;;5151561;27;45141;-70
2022/08/30 07:26:04;;;;;;;7.32;5.03;;;25.10;48.40;;;;;;5151643;27;45351;-70
2022/08/30 07:28:30;;;;;;;7.20;5.50;;;25.10;48.30;;;;;;5151046;27;45442;-70
2022/08/30 07:30:57;;;;;;;9.32;5.43;;;25.10;48.50;;;;;;5136321;27;45160;-70
2022/08/30 07:33:24;;;;;;;8.85;6.40;;;25.10;48.50;;;;;;5130488;27;45226;-70
2022/08/30 07:35:51;;;;;;;11.85;6.63;;;25.10;48.80;;;;;;5130607;27;45362;-70
2022/08/30 07:38:18;;;;;;;8.60;6.43;;;25.10;48.80;;;;;;5130702;27;45350;-70
2022/08/30 07:40:46;;;;;;;7.22;5.55;;;25.10;48.60;;;;;;5130424;27;46675;-70
2022/08/30 07:43:13;;;;;;;10.35;6.68;;;25.10;48.60;;;;;;5129856;27;45356;-70
2022/08/30 07:45:39;;;;;;;9.73;6.22;;;25.20;49.10;;;;;;5128462;27;45253;-70
2022/08/30 07:48:07;;;;;;;6.85;5.63;;;25.20;49.20;;;;;;5129544;27;45442;-70
2022/08/30 07:50:34;;;;;;;7.45;5.38;;;25.20;49.10;;;;;;5129216;27;46658;-70
2022/08/30 07:53:01;;;;;;;6.13;5.45;;;25.20;50.30;;;;;;5129842;27;45324;-70
2022/08/30 07:55:28;;;;;;;7.13;5.65;;;25.20;49.80;;;;;;5129237;27;45191;-70
2022/08/30 07:57:56;;;;;;;6.05;5.40;;;25.20;49.90;;;;;;5130392;27;45213;-70
2022/08/30 08:00:23;;;;;;;5.38;4.88;;;25.20;49.70;;;;;;5129848;27;46377;-70
2022/08/30 08:02:50;;;;;;;9.07;5.35;;;25.20;49.70;;;;;;5129914;27;45505;-70
2022/08/30 08:05:16;;;;;;;5.55;4.72;;;25.20;49.80;;;;;;5129911;27;45190;-70
2022/08/30 08:07:43;;;;;;;5.15;4.65;;;25.30;49.60;;;;;;5129862;27;45488;-70
2022/08/30 08:10:10;;;;;;;5.88;5.07;;;25.30;49.60;;;;;;5130045;27;45220;-71
2022/08/30 08:12:37;;;;;;;6.20;4.78;;;25.30;49.30;;;;;;5129403;27;45511;-70
2022/08/30 08:15:06;;;;;;;5.10;4.40;;;25.30;49.30;;;;;;5128949;27;45375;-70
2022/08/30 08:17:33;;;;;;;5.65;4.60;;;25.30;49.30;;;;;;5129671;27;45185;-70
2022/08/30 08:20:03;;;;;;;4.90;4.40;;;25.40;49.20;;;;;;5147074;27;45512;-70
2022/08/30 08:22:29;;;;;;;5.35;4.47;;;25.40;49.40;;;;;;5150093;27;45309;-70
2022/08/30 08:24:56;;;;;;;5.25;4.70;;;25.40;49.30;;;;;;5150335;27;45232;-70
2022/08/30 08:27:23;;;;;;;4.97;4.57;;;25.50;49.10;;;;;;5150158;27;45159;-70
2022/08/30 08:29:50;;;;;;;5.15;4.65;;;25.50;49.20;;;;;;5147805;27;46625;-70
2022/08/30 08:32:19;;;;;;;5.00;4.50;;;25.50;48.80;;;;;;5129569;27;45308;-69
2022/08/30 08:34:48;;;;;;;5.47;4.90;;;25.60;49.10;;;;;;5129550;27;45337;-70
2022/08/30 08:37:14;;;;;;;5.30;4.35;;;25.60;49.20;;;;;;5129617;27;45185;-70
2022/08/30 08:39:41;;;;;;;6.13;4.93;;;25.60;49.00;;;;;;5129176;27;46631;-70
2022/08/30 08:42:11;;;;;;;5.22;4.47;;;25.70;49.20;;;;;;5129765;27;45324;-70
2022/08/30 08:44:46;;;;;;;5.30;4.78;;;25.70;49.10;;;;;;5129388;27;45220;-69
2022/08/30 08:47:13;;;;;;;5.50;4.53;;;25.70;49.20;;;;;;5129416;27;45221;-70
2022/08/30 08:49:44;;;;;;;5.78;4.50;;;25.70;48.80;;;;;;5128967;27;46403;-69
2022/08/30 08:55:00;;;;;;;6.50;5.15;;;25.80;49.20;;;;;;5126347;27;45197;-70
2022/08/30 08:57:28;;;;;;;5.07;4.57;;;25.80;49.60;;;;;;5129332;27;45334;-70
2022/08/30 08:59:54;;;;;;;7.20;5.07;;;25.90;49.40;;;;;;5128986;27;46319;-69
2022/08/30 09:02:24;;;;;;;6.57;5.53;;;25.90;49.60;;;;;;5128893;27;45242;-69
2022/08/30 09:04:53;;;;;;;6.75;5.75;;;26.00;49.40;;;;;;5128598;27;45113;-69
2022/08/30 09:07:22;;;;;;;6.53;5.28;;;26.00;49.60;;;;;;5129166;27;45244;-70
2022/08/30 09:09:48;;;;;;;8.52;5.70;;;26.00;49.40;;;;;;5128166;27;46434;-70
2022/08/30 09:12:15;;;;;;;8.40;5.60;;;26.00;49.60;;;;;;5128484;27;45165;-69
2022/08/30 09:14:43;;;;;;;5.78;5.28;;;26.00;49.80;;;;;;5128753;27;45324;-70
2022/08/30 09:17:11;;;;;;;8.32;5.80;;;26.00;49.80;;;;;;5128998;27;45264;-70
2022/08/30 09:19:40;;;;;;;7.97;5.05;;;26.10;50.20;;;;;;5142477;27;46387;-70
2022/08/30 09:22:26;;;;;;;6.03;5.43;;;26.10;50.20;;;;;;5149301;27;45395;-70
2022/08/30 09:24:55;;;;;;;8.35;5.32;;;26.20;50.20;;;;;;5149472;27;45333;-70
2022/08/30 09:27:29;;;;;;;7.00;4.55;;;26.20;50.30;;;;;;5148567;27;45515;-70
2022/08/30 09:30:01;;;;;;;5.18;4.68;;;26.20;50.30;;;;;;5146040;27;46646;-70
2022/08/30 09:32:30;;;;;;;5.68;4.97;;;26.20;50.10;;;;;;5124612;27;45377;-70
2022/08/30 09:34:57;;;;;;;4.75;4.30;;;26.20;50.30;;;;;;5128559;27;45214;-70
2022/08/30 09:37:28;;;;;;;5.32;4.82;;;26.30;50.30;;;;;;5126336;27;45252;-70
2022/08/30 09:39:56;;;;;;;4.80;4.38;;;26.30;50.30;;;;;;5128322;27;46591;-69
2022/08/30 09:42:24;;;;;;;4.90;4.03;;;26.30;50.30;;;;;;5128243;27;45215;-70
2022/08/30 09:44:51;;;;;;;8.00;4.65;;;26.40;50.30;;;;;;5128135;27;45362;-70
2022/08/30 09:47:20;;;;;;;4.82;4.32;;;26.40;50.30;;;;;;5128615;27;45460;-70
2022/08/30 09:49:47;;;;;;;5.28;4.38;;;26.40;50.30;;;;;;5127870;27;45305;-70
2022/08/30 09:52:34;;;;;;;4.93;4.40;;;26.50;50.20;;;;;;5127893;27;45236;-70
2022/08/30 09:55:10;;;;;;;4.38;3.97;;;26.50;50.10;;;;;;5128214;27;45164;-70
2022/08/30 09:57:40;;;;;;;7.43;4.68;;;26.60;50.10;;;;;;5128364;27;45343;-70
2022/08/30 10:00:08;;;;;;;6.25;4.28;;;26.60;49.90;;;;;;5127887;27;45295;-69
2022/08/30 10:02:51;;;;;;;5.20;4.70;;;26.70;50.00;;;;;;5127900;27;45249;-69
2022/08/30 10:05:22;;;;;;;5.60;3.88;;;26.70;49.90;;;;;;5127567;27;45267;-69
2022/08/30 10:07:54;;;;;;;5.00;3.97;;;26.70;50.10;;;;;;5128087;27;45260;-69
2022/08/30 10:10:25;;;;;;;6.40;4.80;;;26.80;50.30;;;;;;5127583;27;45229;-70
2022/08/30 10:12:57;;;;;;;8.25;5.53;;;26.90;50.50;;;;;;5127342;27;45396;-70
2022/08/30 10:15:25;;;;;;;10.93;5.88;;;26.90;50.40;;;;;;5127566;27;45286;-69
2022/08/30 10:17:54;;;;;;;8.32;5.43;;;26.90;50.40;;;;;;5127694;27;45395;-69
2022/08/30 10:20:23;;;;;;;8.23;5.13;;;27.00;50.50;;;;;;5147769;27;46248;-70
2022/08/30 10:22:53;;;;;;;5.93;5.30;;;27.10;50.00;;;;;;5147918;27;45315;-70
2022/08/30 10:25:22;;;;;;;5.47;4.70;;;27.10;49.90;;;;;;5148205;27;45352;-69
2022/08/30 10:27:51;;;;;;;5.32;4.82;;;27.00;49.20;;;;;;5148433;27;45321;-69
2022/08/30 10:30:18;;;;;;;6.07;4.57;;;27.00;49.30;;;;;;5141528;27;46298;-70
2022/08/30 10:32:48;;;;;;;4.90;4.07;;;27.10;49.20;;;;;;5127247;27;45182;-69
2022/08/30 10:35:16;;;;;;;5.15;4.47;;;27.10;49.20;;;;;;5126500;27;45315;-70
2022/08/30 10:37:45;;;;;;;5.93;4.38;;;27.10;49.10;;;;;;5126830;27;45129;-70
2022/08/30 10:43:01;;;;;;;5.38;4.53;;;27.20;49.20;;;;;;5124331;27;45302;-69
2022/08/30 10:45:28;;;;;;;4.30;3.72;;;27.30;49.30;;;;;;5126912;27;45325;-69
2022/08/30 10:47:57;;;;;;;4.85;4.20;;;27.20;49.00;;;;;;5127352;27;45148;-69
2022/08/30 10:50:27;;;;;;;4.40;4.00;;;27.20;49.10;;;;;;5126819;27;46454;-69
2022/08/30 10:52:56;;;;;;;5.40;4.03;;;27.30;49.00;;;;;;5126906;27;45210;-70
2022/08/30 10:55:26;;;;;;;5.32;4.47;;;27.30;49.00;;;;;;5127262;27;45311;-70
2022/08/30 10:57:53;;;;;;;5.57;4.18;;;27.30;49.50;;;;;;5127512;27;45245;-70
2022/08/30 11:00:24;;;;;;;4.95;4.00;;;27.40;48.70;;;;;;5126890;27;46722;-70
2022/08/30 11:03:13;;;;;;;6.68;3.92;;;27.40;48.50;;;;;;5126890;27;45261;-70
2022/08/30 11:05:54;;;;;;;4.38;3.88;;;27.50;48.60;;;;;;5126866;27;45125;-69
2022/08/30 11:08:28;;;;;;;5.30;4.20;;;27.50;48.70;;;;;;5127041;27;45407;-69
2022/08/30 11:11:00;;;;;;;4.70;4.10;;;27.60;48.50;;;;;;5126736;27;46524;-69
2022/08/30 11:13:28;;;;;;;4.30;4.00;;;27.60;48.00;;;;;;5126775;27;45531;-68
2022/08/30 11:15:58;;;;;;;4.80;3.80;;;27.60;47.80;;;;;;5126714;27;45389;-69
2022/08/30 11:18:25;;;;;;;5.72;3.80;;;27.70;47.90;;;;;;5126979;27;45299;-69
2022/08/30 11:20:52;;;;;;;5.05;3.95;;;27.70;48.40;;;;;;5126957;27;46417;-70
2022/08/30 11:23:25;;;;;;;4.50;4.10;;;27.80;48.10;;;;;;5127362;27;45284;-70
2022/08/30 11:25:54;;;;;;;6.47;4.20;;;27.90;48.00;;;;;;5126912;27;45191;-70
2022/08/30 11:28:57;;;;;;;4.00;3.50;;;27.90;47.90;;;;;;5126605;27;45374;-69
2022/08/30 11:31:46;;;;;;;5.15;4.65;;;28.00;47.90;;;;;;5122496;27;45736;-70
2022/08/30 11:34:13;;;;;;;4.68;3.97;;;28.10;47.40;;;;;;5118613;27;45187;-69
2022/08/30 11:37:07;;;;;;;5.07;3.88;;;28.10;47.30;;;;;;5126470;27;45128;-70
2022/08/30 11:40:05;;;;;;;4.13;3.70;;;28.10;47.20;;;;;;5126673;27;45534;-70
2022/08/30 11:42:34;;;;;;;4.82;4.00;;;28.20;47.10;;;;;;5126181;27;46392;-70
2022/08/30 11:45:38;;;;;;;5.68;4.28;;;28.20;47.00;;;;;;5126030;27;45291;-69
2022/08/30 11:48:08;;;;;;;5.80;3.97;;;28.30;47.00;;;;;;5126383;27;45237;-69
2022/08/30 11:50:39;;;;;;;5.07;3.72;;;28.30;47.00;;;;;;5128234;27;45462;-70
2022/08/30 11:53:10;;;;;;;4.28;3.85;;;28.30;46.90;;;;;;5129281;27;46278;-70
2022/08/30 11:55:56;;;;;;;4.60;3.80;;;28.40;46.80;;;;;;5129477;27;45165;-70
2022/08/30 11:58:29;;;;;;;5.30;3.50;;;28.40;46.90;;;;;;5130035;27;45245;-70
2022/08/30 12:01:28;;;;;;;4.40;3.70;;;28.40;46.80;;;;;;5130004;27;45478;-70
2022/08/30 12:03:58;;;;;;;3.97;3.58;;;28.50;46.80;;;;;;5126711;27;46320;-70
2022/08/30 12:06:47;;;;;;;5.15;3.65;;;28.60;46.70;;;;;;5126528;27;45196;-70
2022/08/30 12:10:02;;;;;;;3.50;3.30;;;28.60;46.50;;;;;;5129782;27;45201;-70
2022/08/30 12:12:52;;;;;;;7.03;3.78;;;28.70;46.70;;;;;;5129782;27;45236;-70
2022/08/30 12:15:54;;;;;;;4.25;3.80;;;28.70;47.00;;;;;;5129341;27;47318;-70
2022/08/30 12:18:26;;;;;;;4.03;3.63;;;28.80;47.60;;;;;;5132134;27;45315;-69
2022/08/30 12:20:53;;;;;;;4.13;3.72;;;28.90;47.70;;;;;;5149721;27;45264;-70
2022/08/30 12:23:21;;;;;;;4.13;3.72;;;28.90;47.70;;;;;;5149718;27;45312;-69
2022/08/30 12:25:48;;;;;;;5.60;3.95;;;29.00;47.80;;;;;;5149109;27;45312;-70
2022/08/30 12:28:20;;;;;;;4.72;3.58;;;29.10;47.70;;;;;;5149159;27;45272;-70
2022/08/30 12:30:47;;;;;;;5.32;3.60;;;29.20;47.70;;;;;;5138936;27;45387;-70
2022/08/30 12:33:23;;;;;;;4.85;4.32;;;29.20;47.50;;;;;;5128693;27;45313;-70
2022/08/30 12:35:50;;;;;;;4.25;3.85;;;29.30;47.50;;;;;;5128148;27;46575;-70
2022/08/30 12:38:19;;;;;;;4.68;3.75;;;29.30;47.30;;;;;;5127845;27;45391;-70
2022/08/30 12:40:50;;;;;;;5.63;3.78;;;29.40;47.30;;;;;;5128438;27;45299;-70
2022/08/30 12:43:24;;;;;;;7.13;4.20;;;29.40;47.30;;;;;;5128492;27;45261;-70
2022/08/30 12:45:51;;;;;;;5.43;3.90;;;29.40;47.30;;;;;;5128397;27;45295;-70
2022/08/30 12:48:18;;;;;;;4.10;3.60;;;29.40;47.40;;;;;;5128098;27;45395;-70
2022/08/30 12:50:50;;;;;;;4.28;3.88;;;29.50;47.00;;;;;;5128427;27;45334;-70
2022/08/30 12:53:21;;;;;;;4.90;4.18;;;29.50;47.00;;;;;;5128548;27;45277;-70
2022/08/30 12:55:53;;;;;;;4.38;3.97;;;29.60;47.00;;;;;;5127647;27;45479;-70
2022/08/30 12:58:37;;;;;;;6.65;4.40;;;29.60;47.10;;;;;;5127048;27;45388;-70
2022/08/30 13:01:18;;;;;;;4.88;3.70;;;29.70;47.00;;;;;;5128802;27;45272;-70
2022/08/30 13:03:54;;;;;;;4.70;3.70;;;29.80;46.90;;;;;;5128764;27;45357;-70